sensor_id;sensor_type;location;lat;lon;timestamp;P1;durP1;ratioP1;P2;durP2;ratioP2
55362;SDS011;41244;49.242;9.060;2022-11-20T00:01:17;19.45;;;13.75;;
55362;SDS011;41244;49.242;9.060;2022-11-20T00:03:45;19.60;;;13.85;;
55362;SDS011;41244;49.242;9.060;2022-11-20T00:06:13;21.08;;;15.02;;
55362;SDS011;41244;49.242;9.060;2022-11-20T00:08:41;20.48;;;13.43;;
55362;SDS011;41244;49.242;9.060;2022-11-20T00:11:11;18.42;;;12.98;;
55362;SDS011;41244;49.242;9.060;2022-11-20T00:13:40;17.10;;;12.60;;
55362;SDS011;41244;49.242;9.060;2022-11-20T00:16:07;17.77;;;12.50;;
55362;SDS011;41244;49.242;9.060;2022-11-20T00:18:35;16.85;;;12.10;;
55362;SDS011;41244;49.242;9.060;2022-11-20T00:21:02;16.45;;;11.85;;
55362;SDS011;41244;49.242;9.060;2022-11-20T00:23:37;17.60;;;12.23;;
55362;SDS011;41244;49.242;9.060;2022-11-20T00:26:03;15.77;;;11.52;;
55362;SDS011;41244;49.242;9.060;2022-11-20T00:28:31;17.83;;;12.63;;
55362;SDS011;41244;49.242;9.060;2022-11-20T00:31:04;16.63;;;12.00;;
55362;SDS011;41244;49.242;9.060;2022-11-20T00:33:38;17.02;;;12.00;;
55362;SDS011;41244;49.242;9.060;2022-11-20T00:36:05;18.13;;;12.85;;
55362;SDS011;41244;49.242;9.060;2022-11-20T00:38:33;18.75;;;12.38;;
55362;SDS011;41244;49.242;9.060;2022-11-20T00:41:00;17.55;;;12.73;;
55362;SDS011;41244;49.242;9.060;2022-11-20T00:43:31;19.08;;;12.93;;
55362;SDS011;41244;49.242;9.060;2022-11-20T00:46:01;16.02;;;11.90;;
55362;SDS011;41244;49.242;9.060;2022-11-20T00:48:32;16.55;;;12.13;;
55362;SDS011;41244;49.242;9.060;2022-11-20T00:50:58;19.45;;;13.52;;
55362;SDS011;41244;49.242;9.060;2022-11-20T00:53:24;20.05;;;13.32;;
55362;SDS011;41244;49.242;9.060;2022-11-20T00:55:57;19.45;;;13.43;;
55362;SDS011;41244;49.242;9.060;2022-11-20T00:58:29;18.15;;;13.45;;
55362;SDS011;41244;49.242;9.060;2022-11-20T01:01:05;18.02;;;13.07;;
55362;SDS011;41244;49.242;9.060;2022-11-20T01:03:41;18.65;;;12.98;;
55362;SDS011;41244;49.242;9.060;2022-11-20T01:06:13;19.05;;;12.52;;
55362;SDS011;41244;49.242;9.060;2022-11-20T01:08:43;19.05;;;13.90;;
55362;SDS011;41244;49.242;9.060;2022-11-20T01:11:10;19.27;;;13.82;;
55362;SDS011;41244;49.242;9.060;2022-11-20T01:13:47;19.60;;;13.75;;
55362;SDS011;41244;49.242;9.060;2022-11-20T01:16:24;20.35;;;13.55;;
55362;SDS011;41244;49.242;9.060;2022-11-20T01:18:53;18.58;;;13.50;;
55362;SDS011;41244;49.242;9.060;2022-11-20T01:21:27;18.67;;;13.98;;
55362;SDS011;41244;49.242;9.060;2022-11-20T01:23:55;20.80;;;14.15;;
55362;SDS011;41244;49.242;9.060;2022-11-20T01:26:22;19.80;;;14.98;;
55362;SDS011;41244;49.242;9.060;2022-11-20T01:28:50;18.17;;;13.68;;
55362;SDS011;41244;49.242;9.060;2022-11-20T01:31:18;18.73;;;13.77;;
55362;SDS011;41244;49.242;9.060;2022-11-20T01:33:49;19.50;;;13.18;;
55362;SDS011;41244;49.242;9.060;2022-11-20T01:36:18;20.42;;;13.95;;
55362;SDS011;41244;49.242;9.060;2022-11-20T01:38:46;19.75;;;13.77;;
55362;SDS011;41244;49.242;9.060;2022-11-20T01:41:13;23.25;;;14.20;;
55362;SDS011;41244;49.242;9.060;2022-11-20T01:43:59;20.10;;;13.52;;
55362;SDS011;41244;49.242;9.060;2022-11-20T01:46:25;19.27;;;13.55;;
55362;SDS011;41244;49.242;9.060;2022-11-20T01:48:53;20.60;;;14.57;;
55362;SDS011;41244;49.242;9.060;2022-11-20T01:52:15;20.60;;;14.07;;
55362;SDS011;41244;49.242;9.060;2022-11-20T01:54:49;19.35;;;13.55;;
55362;SDS011;41244;49.242;9.060;2022-11-20T01:57:44;21.50;;;13.57;;
55362;SDS011;41244;49.242;9.060;2022-11-20T02:00:11;20.13;;;13.60;;
55362;SDS011;41244;49.242;9.060;2022-11-20T02:02:42;21.90;;;14.55;;
55362;SDS011;41244;49.242;9.060;2022-11-20T02:05:23;21.13;;;14.65;;
55362;SDS011;41244;49.242;9.060;2022-11-20T02:08:07;20.80;;;14.52;;
55362;SDS011;41244;49.242;9.060;2022-11-20T02:10:33;21.52;;;15.20;;
55362;SDS011;41244;49.242;9.060;2022-11-20T02:12:59;19.90;;;13.70;;
55362;SDS011;41244;49.242;9.060;2022-11-20T02:15:45;21.42;;;14.25;;
55362;SDS011;41244;49.242;9.060;2022-11-20T02:18:11;21.52;;;14.80;;
55362;SDS011;41244;49.242;9.060;2022-11-20T02:20:40;20.45;;;14.38;;
55362;SDS011;41244;49.242;9.060;2022-11-20T02:23:12;26.17;;;15.45;;
55362;SDS011;41244;49.242;9.060;2022-11-20T02:25:45;22.73;;;14.25;;
55362;SDS011;41244;49.242;9.060;2022-11-20T02:28:12;24.10;;;15.15;;
55362;SDS011;41244;49.242;9.060;2022-11-20T02:30:38;19.52;;;14.30;;
55362;SDS011;41244;49.242;9.060;2022-11-20T02:33:04;23.38;;;15.55;;
55362;SDS011;41244;49.242;9.060;2022-11-20T02:37:56;21.83;;;14.48;;
55362;SDS011;41244;49.242;9.060;2022-11-20T02:40:24;20.77;;;14.57;;
55362;SDS011;41244;49.242;9.060;2022-11-20T02:42:53;22.13;;;14.30;;
55362;SDS011;41244;49.242;9.060;2022-11-20T02:45:20;23.75;;;14.95;;
55362;SDS011;41244;49.242;9.060;2022-11-20T02:47:47;22.90;;;14.80;;
55362;SDS011;41244;49.242;9.060;2022-11-20T02:50:13;23.95;;;15.15;;
55362;SDS011;41244;49.242;9.060;2022-11-20T02:52:39;24.25;;;15.50;;
55362;SDS011;41244;49.242;9.060;2022-11-20T02:55:05;24.13;;;15.38;;
55362;SDS011;41244;49.242;9.060;2022-11-20T02:57:32;21.75;;;14.93;;
55362;SDS011;41244;49.242;9.060;2022-11-20T02:59:57;26.98;;;18.42;;
55362;SDS011;41244;49.242;9.060;2022-11-20T03:02:23;28.60;;;17.60;;
55362;SDS011;41244;49.242;9.060;2022-11-20T03:04:49;29.70;;;18.05;;
55362;SDS011;41244;49.242;9.060;2022-11-20T03:07:15;26.52;;;16.25;;
55362;SDS011;41244;49.242;9.060;2022-11-20T03:09:40;23.33;;;14.60;;
55362;SDS011;41244;49.242;9.060;2022-11-20T03:12:06;25.55;;;16.17;;
55362;SDS011;41244;49.242;9.060;2022-11-20T03:14:32;27.98;;;15.57;;
55362;SDS011;41244;49.242;9.060;2022-11-20T03:16:59;24.48;;;15.13;;
55362;SDS011;41244;49.242;9.060;2022-11-20T03:19:24;24.27;;;16.67;;
55362;SDS011;41244;49.242;9.060;2022-11-20T03:21:50;25.45;;;16.27;;
55362;SDS011;41244;49.242;9.060;2022-11-20T03:24:16;25.77;;;17.10;;
55362;SDS011;41244;49.242;9.060;2022-11-20T03:26:42;25.55;;;17.60;;
55362;SDS011;41244;49.242;9.060;2022-11-20T03:29:07;25.98;;;17.02;;
55362;SDS011;41244;49.242;9.060;2022-11-20T03:31:34;24.55;;;16.88;;
55362;SDS011;41244;49.242;9.060;2022-11-20T03:34:05;25.17;;;16.48;;
55362;SDS011;41244;49.242;9.060;2022-11-20T03:36:32;28.90;;;17.30;;
55362;SDS011;41244;49.242;9.060;2022-11-20T03:38:59;30.48;;;18.67;;
55362;SDS011;41244;49.242;9.060;2022-11-20T03:41:28;26.13;;;18.63;;
55362;SDS011;41244;49.242;9.060;2022-11-20T03:44:00;24.05;;;16.30;;
55362;SDS011;41244;49.242;9.060;2022-11-20T03:46:27;28.02;;;18.15;;
55362;SDS011;41244;49.242;9.060;2022-11-20T03:48:54;30.10;;;19.08;;
55362;SDS011;41244;49.242;9.060;2022-11-20T03:51:21;26.38;;;18.85;;
55362;SDS011;41244;49.242;9.060;2022-11-20T03:53:50;29.77;;;18.70;;
55362;SDS011;41244;49.242;9.060;2022-11-20T03:56:18;26.25;;;18.05;;
55362;SDS011;41244;49.242;9.060;2022-11-20T03:58:47;25.02;;;16.23;;
55362;SDS011;41244;49.242;9.060;2022-11-20T04:01:14;26.80;;;16.00;;
55362;SDS011;41244;49.242;9.060;2022-11-20T04:03:52;25.50;;;16.35;;
55362;SDS011;41244;49.242;9.060;2022-11-20T04:06:23;28.02;;;16.15;;
55362;SDS011;41244;49.242;9.060;2022-11-20T04:08:59;23.10;;;14.50;;
55362;SDS011;41244;49.242;9.060;2022-11-20T04:11:26;22.92;;;14.63;;
55362;SDS011;41244;49.242;9.060;2022-11-20T04:14:03;23.98;;;15.40;;
55362;SDS011;41244;49.242;9.060;2022-11-20T04:16:32;22.13;;;14.93;;
55362;SDS011;41244;49.242;9.060;2022-11-20T04:19:00;21.67;;;14.25;;
55362;SDS011;41244;49.242;9.060;2022-11-20T04:21:28;28.00;;;16.98;;
55362;SDS011;41244;49.242;9.060;2022-11-20T04:23:53;26.27;;;16.95;;
55362;SDS011;41244;49.242;9.060;2022-11-20T04:26:21;26.00;;;16.60;;
55362;SDS011;41244;49.242;9.060;2022-11-20T04:28:48;25.08;;;16.17;;
55362;SDS011;41244;49.242;9.060;2022-11-20T04:31:16;34.45;;;17.50;;
55362;SDS011;41244;49.242;9.060;2022-11-20T04:33:45;25.95;;;16.25;;
55362;SDS011;41244;49.242;9.060;2022-11-20T04:36:12;26.98;;;15.60;;
55362;SDS011;41244;49.242;9.060;2022-11-20T04:38:39;28.55;;;16.65;;
55362;SDS011;41244;49.242;9.060;2022-11-20T04:41:06;26.17;;;16.33;;
55362;SDS011;41244;49.242;9.060;2022-11-20T04:43:36;29.63;;;16.58;;
55362;SDS011;41244;49.242;9.060;2022-11-20T04:46:01;23.33;;;14.65;;
55362;SDS011;41244;49.242;9.060;2022-11-20T04:48:28;24.67;;;15.20;;
55362;SDS011;41244;49.242;9.060;2022-11-20T04:50:54;21.83;;;15.50;;
55362;SDS011;41244;49.242;9.060;2022-11-20T04:53:20;22.85;;;15.00;;
55362;SDS011;41244;49.242;9.060;2022-11-20T04:55:47;22.30;;;13.25;;
55362;SDS011;41244;49.242;9.060;2022-11-20T04:58:13;17.95;;;12.48;;
55362;SDS011;41244;49.242;9.060;2022-11-20T05:00:39;18.08;;;12.07;;
55362;SDS011;41244;49.242;9.060;2022-11-20T05:03:05;17.50;;;11.20;;
55362;SDS011;41244;49.242;9.060;2022-11-20T05:05:33;15.63;;;11.07;;
55362;SDS011;41244;49.242;9.060;2022-11-20T05:07:59;12.85;;;9.55;;
55362;SDS011;41244;49.242;9.060;2022-11-20T05:10:25;16.05;;;10.90;;
55362;SDS011;41244;49.242;9.060;2022-11-20T05:12:51;13.30;;;10.40;;
55362;SDS011;41244;49.242;9.060;2022-11-20T05:15:17;14.55;;;10.77;;
55362;SDS011;41244;49.242;9.060;2022-11-20T05:17:50;16.15;;;11.10;;
55362;SDS011;41244;49.242;9.060;2022-11-20T05:20:16;15.10;;;10.27;;
55362;SDS011;41244;49.242;9.060;2022-11-20T05:22:43;13.43;;;11.18;;
55362;SDS011;41244;49.242;9.060;2022-11-20T05:25:09;10.60;;;8.65;;
55362;SDS011;41244;49.242;9.060;2022-11-20T05:27:36;12.35;;;9.90;;
55362;SDS011;41244;49.242;9.060;2022-11-20T05:30:02;11.98;;;9.40;;
55362;SDS011;41244;49.242;9.060;2022-11-20T05:32:29;13.45;;;9.70;;
55362;SDS011;41244;49.242;9.060;2022-11-20T05:34:55;13.98;;;9.85;;
55362;SDS011;41244;49.242;9.060;2022-11-20T05:37:21;12.30;;;9.00;;
55362;SDS011;41244;49.242;9.060;2022-11-20T05:39:46;14.35;;;10.07;;
55362;SDS011;41244;49.242;9.060;2022-11-20T05:42:12;14.80;;;10.05;;
55362;SDS011;41244;49.242;9.060;2022-11-20T05:44:58;14.35;;;10.70;;
55362;SDS011;41244;49.242;9.060;2022-11-20T05:47:26;13.30;;;9.90;;
55362;SDS011;41244;49.242;9.060;2022-11-20T05:49:53;13.30;;;9.65;;
55362;SDS011;41244;49.242;9.060;2022-11-20T05:52:19;14.65;;;10.57;;
55362;SDS011;41244;49.242;9.060;2022-11-20T05:54:45;12.30;;;10.13;;
55362;SDS011;41244;49.242;9.060;2022-11-20T05:57:11;16.13;;;11.20;;
55362;SDS011;41244;49.242;9.060;2022-11-20T05:59:37;17.52;;;12.85;;
55362;SDS011;41244;49.242;9.060;2022-11-20T06:02:03;16.80;;;12.68;;
55362;SDS011;41244;49.242;9.060;2022-11-20T06:04:29;14.32;;;11.18;;
55362;SDS011;41244;49.242;9.060;2022-11-20T06:06:54;14.45;;;11.50;;
55362;SDS011;41244;49.242;9.060;2022-11-20T06:09:21;14.52;;;10.75;;
55362;SDS011;41244;49.242;9.060;2022-11-20T06:11:46;15.38;;;10.95;;
55362;SDS011;41244;49.242;9.060;2022-11-20T06:14:12;13.40;;;10.63;;
55362;SDS011;41244;49.242;9.060;2022-11-20T06:16:38;13.63;;;10.48;;
55362;SDS011;41244;49.242;9.060;2022-11-20T06:19:04;13.45;;;10.82;;
55362;SDS011;41244;49.242;9.060;2022-11-20T06:21:29;14.95;;;11.13;;
55362;SDS011;41244;49.242;9.060;2022-11-20T06:23:55;14.82;;;11.48;;
55362;SDS011;41244;49.242;9.060;2022-11-20T06:26:22;14.13;;;11.52;;
55362;SDS011;41244;49.242;9.060;2022-11-20T06:28:50;15.95;;;12.95;;
55362;SDS011;41244;49.242;9.060;2022-11-20T06:31:20;20.48;;;18.10;;
55362;SDS011;41244;49.242;9.060;2022-11-20T06:33:47;20.85;;;16.73;;
55362;SDS011;41244;49.242;9.060;2022-11-20T06:36:13;17.10;;;14.65;;
55362;SDS011;41244;49.242;9.060;2022-11-20T06:38:41;18.60;;;13.75;;
55362;SDS011;41244;49.242;9.060;2022-11-20T06:41:11;16.98;;;11.85;;
55362;SDS011;41244;49.242;9.060;2022-11-20T06:43:39;16.10;;;11.95;;
55362;SDS011;41244;49.242;9.060;2022-11-20T06:46:05;19.15;;;13.02;;
55362;SDS011;41244;49.242;9.060;2022-11-20T06:48:31;16.40;;;11.68;;
55362;SDS011;41244;49.242;9.060;2022-11-20T06:50:57;14.55;;;11.88;;
55362;SDS011;41244;49.242;9.060;2022-11-20T06:53:24;15.85;;;11.60;;
55362;SDS011;41244;49.242;9.060;2022-11-20T06:55:50;15.88;;;11.52;;
55362;SDS011;41244;49.242;9.060;2022-11-20T06:58:17;14.85;;;10.90;;
55362;SDS011;41244;49.242;9.060;2022-11-20T07:00:43;15.60;;;10.60;;
55362;SDS011;41244;49.242;9.060;2022-11-20T07:03:10;13.07;;;9.00;;
55362;SDS011;41244;49.242;9.060;2022-11-20T07:05:37;9.85;;;8.10;;
55362;SDS011;41244;49.242;9.060;2022-11-20T07:08:03;12.60;;;8.60;;
55362;SDS011;41244;49.242;9.060;2022-11-20T07:10:30;10.05;;;8.43;;
55362;SDS011;41244;49.242;9.060;2022-11-20T07:12:56;9.68;;;8.68;;
55362;SDS011;41244;49.242;9.060;2022-11-20T07:15:22;9.90;;;7.95;;
55362;SDS011;41244;49.242;9.060;2022-11-20T07:17:49;9.73;;;7.47;;
55362;SDS011;41244;49.242;9.060;2022-11-20T07:20:15;9.80;;;8.35;;
55362;SDS011;41244;49.242;9.060;2022-11-20T07:22:41;8.43;;;7.53;;
55362;SDS011;41244;49.242;9.060;2022-11-20T07:25:07;12.98;;;8.75;;
55362;SDS011;41244;49.242;9.060;2022-11-20T07:27:34;11.70;;;9.18;;
55362;SDS011;41244;49.242;9.060;2022-11-20T07:30:00;12.85;;;8.65;;
55362;SDS011;41244;49.242;9.060;2022-11-20T07:32:28;10.30;;;8.20;;
55362;SDS011;41244;49.242;9.060;2022-11-20T07:34:53;14.15;;;8.50;;
55362;SDS011;41244;49.242;9.060;2022-11-20T07:37:19;10.45;;;8.60;;
55362;SDS011;41244;49.242;9.060;2022-11-20T07:39:45;12.38;;;8.38;;
55362;SDS011;41244;49.242;9.060;2022-11-20T07:42:11;11.45;;;8.32;;
55362;SDS011;41244;49.242;9.060;2022-11-20T07:44:39;9.50;;;8.20;;
55362;SDS011;41244;49.242;9.060;2022-11-20T07:47:05;9.50;;;8.32;;
55362;SDS011;41244;49.242;9.060;2022-11-20T07:49:31;11.38;;;7.68;;
55362;SDS011;41244;49.242;9.060;2022-11-20T07:51:57;11.57;;;7.95;;
55362;SDS011;41244;49.242;9.060;2022-11-20T07:54:23;14.23;;;8.55;;
55362;SDS011;41244;49.242;9.060;2022-11-20T07:56:48;10.57;;;8.27;;
55362;SDS011;41244;49.242;9.060;2022-11-20T07:59:15;9.20;;;7.45;;
55362;SDS011;41244;49.242;9.060;2022-11-20T08:01:41;9.95;;;7.57;;
55362;SDS011;41244;49.242;9.060;2022-11-20T08:04:07;7.97;;;6.63;;
55362;SDS011;41244;49.242;9.060;2022-11-20T08:06:34;7.43;;;6.35;;
55362;SDS011;41244;49.242;9.060;2022-11-20T08:09:01;13.05;;;9.70;;
55362;SDS011;41244;49.242;9.060;2022-11-20T08:11:27;9.07;;;6.70;;
55362;SDS011;41244;49.242;9.060;2022-11-20T08:14:11;7.07;;;6.38;;
55362;SDS011;41244;49.242;9.060;2022-11-20T08:16:38;7.88;;;6.78;;
55362;SDS011;41244;49.242;9.060;2022-11-20T08:19:07;8.95;;;6.90;;
55362;SDS011;41244;49.242;9.060;2022-11-20T08:21:34;7.95;;;6.70;;
55362;SDS011;41244;49.242;9.060;2022-11-20T08:24:00;7.15;;;6.35;;
55362;SDS011;41244;49.242;9.060;2022-11-20T08:26:26;12.18;;;7.20;;
55362;SDS011;41244;49.242;9.060;2022-11-20T08:28:55;7.70;;;6.90;;
55362;SDS011;41244;49.242;9.060;2022-11-20T08:31:22;9.23;;;6.40;;
55362;SDS011;41244;49.242;9.060;2022-11-20T08:33:49;7.10;;;5.90;;
55362;SDS011;41244;49.242;9.060;2022-11-20T08:36:15;7.55;;;6.45;;
55362;SDS011;41244;49.242;9.060;2022-11-20T08:38:41;8.70;;;7.07;;
55362;SDS011;41244;49.242;9.060;2022-11-20T08:41:11;8.45;;;7.00;;
55362;SDS011;41244;49.242;9.060;2022-11-20T08:43:50;8.88;;;6.15;;
55362;SDS011;41244;49.242;9.060;2022-11-20T08:46:22;14.55;;;8.90;;
55362;SDS011;41244;49.242;9.060;2022-11-20T08:48:49;8.18;;;6.75;;
55362;SDS011;41244;49.242;9.060;2022-11-20T08:51:15;7.13;;;6.43;;
55362;SDS011;41244;49.242;9.060;2022-11-20T08:53:41;9.13;;;7.53;;
55362;SDS011;41244;49.242;9.060;2022-11-20T08:56:06;8.02;;;6.55;;
55362;SDS011;41244;49.242;9.060;2022-11-20T08:58:32;8.43;;;6.65;;
55362;SDS011;41244;49.242;9.060;2022-11-20T09:00:58;7.38;;;6.65;;
55362;SDS011;41244;49.242;9.060;2022-11-20T09:03:24;6.47;;;5.30;;
55362;SDS011;41244;49.242;9.060;2022-11-20T09:05:56;6.47;;;5.88;;
55362;SDS011;41244;49.242;9.060;2022-11-20T09:08:26;9.10;;;6.15;;
55362;SDS011;41244;49.242;9.060;2022-11-20T09:10:53;5.68;;;5.07;;
55362;SDS011;41244;49.242;9.060;2022-11-20T09:13:23;5.85;;;4.72;;
55362;SDS011;41244;49.242;9.060;2022-11-20T09:16:01;5.53;;;4.95;;
55362;SDS011;41244;49.242;9.060;2022-11-20T09:18:30;6.57;;;5.03;;
55362;SDS011;41244;49.242;9.060;2022-11-20T09:20:58;7.57;;;4.65;;
55362;SDS011;41244;49.242;9.060;2022-11-20T09:23:24;7.22;;;4.90;;
55362;SDS011;41244;49.242;9.060;2022-11-20T09:25:51;8.13;;;5.18;;
55362;SDS011;41244;49.242;9.060;2022-11-20T09:28:17;6.47;;;4.88;;
55362;SDS011;41244;49.242;9.060;2022-11-20T09:30:43;7.07;;;5.43;;
55362;SDS011;41244;49.242;9.060;2022-11-20T09:33:09;7.50;;;5.38;;
55362;SDS011;41244;49.242;9.060;2022-11-20T09:35:35;7.47;;;5.60;;
55362;SDS011;41244;49.242;9.060;2022-11-20T09:38:07;6.85;;;6.13;;
55362;SDS011;41244;49.242;9.060;2022-11-20T09:40:34;6.82;;;6.18;;
55362;SDS011;41244;49.242;9.060;2022-11-20T09:54:30;7.68;;;6.97;;
55362;SDS011;41244;49.242;9.060;2022-11-20T09:57:02;9.27;;;7.57;;
55362;SDS011;41244;49.242;9.060;2022-11-20T10:05:02;8.02;;;6.07;;
55362;SDS011;41244;49.242;9.060;2022-11-20T10:08:18;8.57;;;7.78;;
55362;SDS011;41244;49.242;9.060;2022-11-20T10:11:18;7.63;;;5.80;;
55362;SDS011;41244;49.242;9.060;2022-11-20T10:25:19;7.88;;;5.95;;
55362;SDS011;41244;49.242;9.060;2022-11-20T10:28:15;5.80;;;5.20;;
55362;SDS011;41244;49.242;9.060;2022-11-20T10:31:14;7.00;;;5.72;;
55362;SDS011;41244;49.242;9.060;2022-11-20T10:33:54;6.20;;;5.00;;
55362;SDS011;41244;49.242;9.060;2022-11-20T10:36:26;7.80;;;6.50;;
55362;SDS011;41244;49.242;9.060;2022-11-20T10:39:06;8.35;;;7.20;;
55362;SDS011;41244;49.242;9.060;2022-11-20T10:41:42;7.07;;;5.72;;
55362;SDS011;41244;49.242;9.060;2022-11-20T10:44:20;8.70;;;6.75;;
55362;SDS011;41244;49.242;9.060;2022-11-20T10:47:22;8.75;;;6.10;;
55362;SDS011;41244;49.242;9.060;2022-11-20T10:49:50;8.18;;;6.13;;
55362;SDS011;41244;49.242;9.060;2022-11-20T10:52:26;7.95;;;5.85;;
55362;SDS011;41244;49.242;9.060;2022-11-20T11:00:22;6.43;;;5.03;;
55362;SDS011;41244;49.242;9.060;2022-11-20T11:02:49;6.60;;;5.70;;
55362;SDS011;41244;49.242;9.060;2022-11-20T11:07:46;5.57;;;4.53;;
55362;SDS011;41244;49.242;9.060;2022-11-20T11:10:19;4.60;;;4.20;;
55362;SDS011;41244;49.242;9.060;2022-11-20T11:12:54;8.55;;;4.47;;
55362;SDS011;41244;49.242;9.060;2022-11-20T11:18:00;10.48;;;8.63;;
55362;SDS011;41244;49.242;9.060;2022-11-20T11:20:26;7.28;;;4.50;;
55362;SDS011;41244;49.242;9.060;2022-11-20T11:22:56;5.35;;;4.72;;
55362;SDS011;41244;49.242;9.060;2022-11-20T11:27:55;6.03;;;4.60;;
55362;SDS011;41244;49.242;9.060;2022-11-20T11:30:27;7.47;;;4.93;;
55362;SDS011;41244;49.242;9.060;2022-11-20T11:33:05;8.68;;;5.60;;
55362;SDS011;41244;49.242;9.060;2022-11-20T11:35:38;5.40;;;4.90;;
55362;SDS011;41244;49.242;9.060;2022-11-20T11:38:19;10.73;;;5.68;;
55362;SDS011;41244;49.242;9.060;2022-11-20T11:40:53;7.78;;;6.00;;
55362;SDS011;41244;49.242;9.060;2022-11-20T11:43:31;8.95;;;6.82;;
55362;SDS011;41244;49.242;9.060;2022-11-20T11:57:22;8.02;;;5.85;;
55362;SDS011;41244;49.242;9.060;2022-11-20T12:00:12;9.23;;;5.70;;
55362;SDS011;41244;49.242;9.060;2022-11-20T12:05:19;10.68;;;6.70;;
55362;SDS011;41244;49.242;9.060;2022-11-20T12:08:05;19.73;;;10.23;;
55362;SDS011;41244;49.242;9.060;2022-11-20T12:11:03;11.85;;;7.70;;
55362;SDS011;41244;49.242;9.060;2022-11-20T12:13:50;11.45;;;7.20;;
55362;SDS011;41244;49.242;9.060;2022-11-20T12:16:38;10.73;;;7.70;;
55362;SDS011;41244;49.242;9.060;2022-11-20T12:19:08;9.40;;;6.57;;
55362;SDS011;41244;49.242;9.060;2022-11-20T12:30:25;8.52;;;5.80;;
55362;SDS011;41244;49.242;9.060;2022-11-20T12:39:01;7.05;;;4.75;;
55362;SDS011;41244;49.242;9.060;2022-11-20T12:47:42;7.43;;;4.18;;
55362;SDS011;41244;49.242;9.060;2022-11-20T12:56:21;9.20;;;3.90;;
55362;SDS011;41244;49.242;9.060;2022-11-20T13:08:24;7.03;;;3.78;;
55362;SDS011;41244;49.242;9.060;2022-11-20T13:11:16;6.55;;;3.67;;
55362;SDS011;41244;49.242;9.060;2022-11-20T13:19:47;7.22;;;3.88;;
55362;SDS011;41244;49.242;9.060;2022-11-20T13:22:25;5.40;;;4.73;;
55362;SDS011;41244;49.242;9.060;2022-11-20T13:27:59;7.53;;;4.28;;
55362;SDS011;41244;49.242;9.060;2022-11-20T13:30:48;6.03;;;3.70;;
55362;SDS011;41244;49.242;9.060;2022-11-20T13:36:05;8.20;;;4.60;;
55362;SDS011;41244;49.242;9.060;2022-11-20T13:41:23;4.50;;;3.90;;
55362;SDS011;41244;49.242;9.060;2022-11-20T13:46:35;5.78;;;3.80;;
55362;SDS011;41244;49.242;9.060;2022-11-20T13:49:08;4.72;;;3.20;;
55362;SDS011;41244;49.242;9.060;2022-11-20T13:51:46;6.38;;;4.10;;
55362;SDS011;41244;49.242;9.060;2022-11-20T14:00:16;6.30;;;3.67;;
55362;SDS011;41244;49.242;9.060;2022-11-20T14:02:59;7.43;;;3.13;;
55362;SDS011;41244;49.242;9.060;2022-11-20T14:05:54;8.15;;;4.65;;
55362;SDS011;41244;49.242;9.060;2022-11-20T14:11:30;8.98;;;4.18;;
55362;SDS011;41244;49.242;9.060;2022-11-20T14:14:02;5.75;;;2.90;;
55362;SDS011;41244;49.242;9.060;2022-11-20T14:16:46;7.80;;;3.53;;
55362;SDS011;41244;49.242;9.060;2022-11-20T14:22:06;8.13;;;5.93;;
55362;SDS011;41244;49.242;9.060;2022-11-20T14:24:39;7.55;;;3.90;;
55362;SDS011;41244;49.242;9.060;2022-11-20T14:27:10;7.55;;;3.83;;
55362;SDS011;41244;49.242;9.060;2022-11-20T14:29:42;6.65;;;3.65;;
55362;SDS011;41244;49.242;9.060;2022-11-20T14:32:09;7.70;;;4.03;;
55362;SDS011;41244;49.242;9.060;2022-11-20T14:34:37;21.30;;;14.48;;
55362;SDS011;41244;49.242;9.060;2022-11-20T14:37:05;6.63;;;3.20;;
55362;SDS011;41244;49.242;9.060;2022-11-20T14:39:41;10.40;;;4.65;;
55362;SDS011;41244;49.242;9.060;2022-11-20T14:42:17;7.28;;;3.10;;
55362;SDS011;41244;49.242;9.060;2022-11-20T14:44:48;5.35;;;3.30;;
55362;SDS011;41244;49.242;9.060;2022-11-20T14:47:17;3.63;;;2.60;;
55362;SDS011;41244;49.242;9.060;2022-11-20T14:49:46;9.15;;;4.97;;
55362;SDS011;41244;49.242;9.060;2022-11-20T14:52:14;5.70;;;3.45;;
55362;SDS011;41244;49.242;9.060;2022-11-20T14:54:47;8.25;;;4.28;;
55362;SDS011;41244;49.242;9.060;2022-11-20T15:00:04;6.60;;;3.85;;
55362;SDS011;41244;49.242;9.060;2022-11-20T15:02:43;29.40;;;4.18;;
55362;SDS011;41244;49.242;9.060;2022-11-20T15:05:12;5.65;;;3.45;;
55362;SDS011;41244;49.242;9.060;2022-11-20T15:07:43;9.27;;;3.13;;
55362;SDS011;41244;49.242;9.060;2022-11-20T15:12:50;10.82;;;6.82;;
55362;SDS011;41244;49.242;9.060;2022-11-20T15:18:21;6.93;;;3.50;;
55362;SDS011;41244;49.242;9.060;2022-11-20T15:21:02;5.25;;;2.97;;
55362;SDS011;41244;49.242;9.060;2022-11-20T15:23:35;5.43;;;2.90;;
55362;SDS011;41244;49.242;9.060;2022-11-20T15:26:01;7.28;;;3.20;;
55362;SDS011;41244;49.242;9.060;2022-11-20T15:28:35;5.93;;;2.70;;
55362;SDS011;41244;49.242;9.060;2022-11-20T15:31:05;5.55;;;3.15;;
55362;SDS011;41244;49.242;9.060;2022-11-20T15:33:31;5.88;;;2.60;;
55362;SDS011;41244;49.242;9.060;2022-11-20T15:35:58;4.38;;;2.63;;
55362;SDS011;41244;49.242;9.060;2022-11-20T15:38:24;5.38;;;3.05;;
55362;SDS011;41244;49.242;9.060;2022-11-20T15:40:51;8.32;;;4.88;;
55362;SDS011;41244;49.242;9.060;2022-11-20T15:43:17;8.23;;;4.30;;
55362;SDS011;41244;49.242;9.060;2022-11-20T15:45:44;6.97;;;4.03;;
55362;SDS011;41244;49.242;9.060;2022-11-20T15:53:41;5.95;;;3.63;;
55362;SDS011;41244;49.242;9.060;2022-11-20T15:56:13;5.40;;;2.90;;
55362;SDS011;41244;49.242;9.060;2022-11-20T15:58:39;6.57;;;2.90;;
55362;SDS011;41244;49.242;9.060;2022-11-20T16:01:10;5.97;;;2.90;;
55362;SDS011;41244;49.242;9.060;2022-11-20T16:03:40;4.13;;;2.80;;
55362;SDS011;41244;49.242;9.060;2022-11-20T16:06:06;8.52;;;4.05;;
55362;SDS011;41244;49.242;9.060;2022-11-20T16:08:32;8.32;;;4.18;;
55362;SDS011;41244;49.242;9.060;2022-11-20T16:10:58;13.65;;;7.15;;
55362;SDS011;41244;49.242;9.060;2022-11-20T16:13:24;12.95;;;8.10;;
55362;SDS011;41244;49.242;9.060;2022-11-20T16:16:13;7.40;;;4.30;;
55362;SDS011;41244;49.242;9.060;2022-11-20T16:18:48;16.58;;;9.75;;
55362;SDS011;41244;49.242;9.060;2022-11-20T16:21:14;12.27;;;7.85;;
55362;SDS011;41244;49.242;9.060;2022-11-20T16:23:40;11.95;;;7.53;;
55362;SDS011;41244;49.242;9.060;2022-11-20T16:26:16;11.75;;;6.10;;
55362;SDS011;41244;49.242;9.060;2022-11-20T16:28:43;12.68;;;8.02;;
55362;SDS011;41244;49.242;9.060;2022-11-20T16:31:10;9.05;;;5.13;;
55362;SDS011;41244;49.242;9.060;2022-11-20T16:33:40;8.40;;;5.75;;
55362;SDS011;41244;49.242;9.060;2022-11-20T16:36:10;7.50;;;5.85;;
55362;SDS011;41244;49.242;9.060;2022-11-20T16:38:38;8.25;;;4.43;;
55362;SDS011;41244;49.242;9.060;2022-11-20T16:41:04;6.50;;;5.00;;
55362;SDS011;41244;49.242;9.060;2022-11-20T16:43:31;7.68;;;5.28;;
55362;SDS011;41244;49.242;9.060;2022-11-20T16:45:57;7.63;;;3.88;;
55362;SDS011;41244;49.242;9.060;2022-11-20T16:48:23;7.10;;;3.38;;
55362;SDS011;41244;49.242;9.060;2022-11-20T16:50:49;5.53;;;3.35;;
55362;SDS011;41244;49.242;9.060;2022-11-20T16:53:20;6.72;;;5.00;;
55362;SDS011;41244;49.242;9.060;2022-11-20T16:55:47;5.35;;;3.35;;
55362;SDS011;41244;49.242;9.060;2022-11-20T16:58:13;6.68;;;4.07;;
55362;SDS011;41244;49.242;9.060;2022-11-20T17:00:39;9.63;;;4.88;;
55362;SDS011;41244;49.242;9.060;2022-11-20T17:03:06;7.55;;;3.90;;
55362;SDS011;41244;49.242;9.060;2022-11-20T17:05:32;8.05;;;4.05;;
55362;SDS011;41244;49.242;9.060;2022-11-20T17:07:59;52.30;;;24.92;;